sensor_id;sensor_type;location;lat;lon;timestamp;P1;durP1;ratioP1;P2;durP2;ratioP2
25449;SDS011;13371;52.080;5.624;2023-11-19T00:00:33;22.45;;;10.48;;
25449;SDS011;13371;52.080;5.624;2023-11-19T00:02:58;22.98;;;10.32;;
25449;SDS011;13371;52.080;5.624;2023-11-19T00:05:24;21.63;;;10.80;;
25449;SDS011;13371;52.080;5.624;2023-11-19T00:07:49;25.95;;;10.25;;
25449;SDS011;13371;52.080;5.624;2023-11-19T00:10:15;22.98;;;9.57;;
25449;SDS011;13371;52.080;5.624;2023-11-19T00:12:44;23.85;;;10.30;;
25449;SDS011;13371;52.080;5.624;2023-11-19T00:15:11;19.27;;;9.82;;
25449;SDS011;13371;52.080;5.624;2023-11-19T00:17:38;21.48;;;9.40;;
25449;SDS011;13371;52.080;5.624;2023-11-19T00:22:40;20.33;;;8.35;;
25449;SDS011;13371;52.080;5.624;2023-11-19T00:25:07;23.92;;;8.60;;
25449;SDS011;13371;52.080;5.624;2023-11-19T00:27:33;25.23;;;9.20;;
25449;SDS011;13371;52.080;5.624;2023-11-19T00:29:59;27.45;;;8.95;;
25449;SDS011;13371;52.080;5.624;2023-11-19T00:32:24;20.42;;;7.82;;
25449;SDS011;13371;52.080;5.624;2023-11-19T00:34:50;15.68;;;6.93;;
25449;SDS011;13371;52.080;5.624;2023-11-19T00:37:16;23.42;;;7.28;;
25449;SDS011;13371;52.080;5.624;2023-11-19T00:39:42;17.13;;;6.70;;
25449;SDS011;13371;52.080;5.624;2023-11-19T00:42:08;14.68;;;6.88;;
25449;SDS011;13371;52.080;5.624;2023-11-19T00:44:38;19.10;;;6.63;;
25449;SDS011;13371;52.080;5.624;2023-11-19T00:47:04;28.70;;;7.18;;
25449;SDS011;13371;52.080;5.624;2023-11-19T00:49:30;16.73;;;6.13;;
25449;SDS011;13371;52.080;5.624;2023-11-19T00:51:59;20.45;;;6.80;;
25449;SDS011;13371;52.080;5.624;2023-11-19T00:54:25;19.70;;;6.65;;
25449;SDS011;13371;52.080;5.624;2023-11-19T00:56:54;26.98;;;6.57;;
25449;SDS011;13371;52.080;5.624;2023-11-19T00:59:20;20.02;;;6.30;;
25449;SDS011;13371;52.080;5.624;2023-11-19T01:01:46;26.80;;;6.40;;
25449;SDS011;13371;52.080;5.624;2023-11-19T01:04:13;25.23;;;6.50;;
25449;SDS011;13371;52.080;5.624;2023-11-19T01:06:39;16.52;;;7.05;;
25449;SDS011;13371;52.080;5.624;2023-11-19T01:09:05;25.25;;;5.85;;
25449;SDS011;13371;52.080;5.624;2023-11-19T01:11:30;24.83;;;6.88;;
25449;SDS011;13371;52.080;5.624;2023-11-19T01:13:56;24.15;;;6.45;;
25449;SDS011;13371;52.080;5.624;2023-11-19T01:16:22;26.58;;;6.45;;
25449;SDS011;13371;52.080;5.624;2023-11-19T01:18:48;19.55;;;5.75;;
25449;SDS011;13371;52.080;5.624;2023-11-19T01:21:13;22.40;;;7.18;;
25449;SDS011;13371;52.080;5.624;2023-11-19T01:23:39;26.10;;;5.18;;
25449;SDS011;13371;52.080;5.624;2023-11-19T01:26:08;34.50;;;5.88;;
25449;SDS011;13371;52.080;5.624;2023-11-19T01:28:35;20.98;;;5.15;;
25449;SDS011;13371;52.080;5.624;2023-11-19T01:31:01;26.45;;;6.50;;
25449;SDS011;13371;52.080;5.624;2023-11-19T01:33:26;25.17;;;5.50;;
25449;SDS011;13371;52.080;5.624;2023-11-19T01:35:53;25.70;;;4.95;;
25449;SDS011;13371;52.080;5.624;2023-11-19T01:38:18;29.52;;;5.22;;
25449;SDS011;13371;52.080;5.624;2023-11-19T01:40:44;31.98;;;5.07;;
25449;SDS011;13371;52.080;5.624;2023-11-19T01:43:10;30.48;;;5.32;;
25449;SDS011;13371;52.080;5.624;2023-11-19T01:45:40;25.77;;;5.32;;
25449;SDS011;13371;52.080;5.624;2023-11-19T01:48:05;28.65;;;4.93;;
25449;SDS011;13371;52.080;5.624;2023-11-19T01:50:31;26.23;;;4.75;;
25449;SDS011;13371;52.080;5.624;2023-11-19T01:52:58;22.95;;;4.85;;
25449;SDS011;13371;52.080;5.624;2023-11-19T01:55:24;22.70;;;5.20;;
25449;SDS011;13371;52.080;5.624;2023-11-19T01:57:53;23.65;;;4.07;;
25449;SDS011;13371;52.080;5.624;2023-11-19T02:00:20;32.97;;;5.60;;
25449;SDS011;13371;52.080;5.624;2023-11-19T02:02:46;22.98;;;4.97;;
25449;SDS011;13371;52.080;5.624;2023-11-19T02:05:13;28.25;;;4.90;;
25449;SDS011;13371;52.080;5.624;2023-11-19T02:07:39;22.48;;;4.85;;
25449;SDS011;13371;52.080;5.624;2023-11-19T02:10:05;29.85;;;5.40;;
25449;SDS011;13371;52.080;5.624;2023-11-19T02:12:32;24.33;;;4.75;;
25449;SDS011;13371;52.080;5.624;2023-11-19T02:14:59;29.48;;;4.38;;
25449;SDS011;13371;52.080;5.624;2023-11-19T02:17:28;22.58;;;3.95;;
25449;SDS011;13371;52.080;5.624;2023-11-19T02:19:56;32.45;;;4.22;;
25449;SDS011;13371;52.080;5.624;2023-11-19T02:22:22;37.75;;;6.00;;
25449;SDS011;13371;52.080;5.624;2023-11-19T02:24:49;28.48;;;4.25;;
25449;SDS011;13371;52.080;5.624;2023-11-19T02:27:26;27.88;;;4.40;;
25449;SDS011;13371;52.080;5.624;2023-11-19T02:30:14;28.15;;;4.88;;
25449;SDS011;13371;52.080;5.624;2023-11-19T02:32:43;35.60;;;4.70;;
25449;SDS011;13371;52.080;5.624;2023-11-19T02:35:08;34.58;;;4.30;;
25449;SDS011;13371;52.080;5.624;2023-11-19T02:37:34;26.13;;;4.20;;
25449;SDS011;13371;52.080;5.624;2023-11-19T02:40:00;27.88;;;4.40;;
25449;SDS011;13371;52.080;5.624;2023-11-19T02:42:28;26.67;;;4.47;;
25449;SDS011;13371;52.080;5.624;2023-11-19T02:44:54;31.98;;;5.30;;
25449;SDS011;13371;52.080;5.624;2023-11-19T02:47:19;34.42;;;5.25;;
25449;SDS011;13371;52.080;5.624;2023-11-19T02:49:46;29.35;;;4.30;;
25449;SDS011;13371;52.080;5.624;2023-11-19T02:52:12;31.05;;;4.13;;
25449;SDS011;13371;52.080;5.624;2023-11-19T02:54:39;40.35;;;4.55;;
25449;SDS011;13371;52.080;5.624;2023-11-19T02:57:06;27.25;;;6.10;;
25449;SDS011;13371;52.080;5.624;2023-11-19T02:59:33;30.90;;;4.53;;
25449;SDS011;13371;52.080;5.624;2023-11-19T03:02:04;35.90;;;5.80;;
25449;SDS011;13371;52.080;5.624;2023-11-19T03:04:32;27.70;;;4.07;;
25449;SDS011;13371;52.080;5.624;2023-11-19T03:06:58;36.70;;;4.63;;
25449;SDS011;13371;52.080;5.624;2023-11-19T03:09:24;41.30;;;6.45;;
25449;SDS011;13371;52.080;5.624;2023-11-19T03:11:50;34.40;;;5.65;;
25449;SDS011;13371;52.080;5.624;2023-11-19T03:14:15;33.85;;;5.07;;
25449;SDS011;13371;52.080;5.624;2023-11-19T03:16:44;32.90;;;4.85;;
25449;SDS011;13371;52.080;5.624;2023-11-19T03:19:11;34.38;;;5.10;;
25449;SDS011;13371;52.080;5.624;2023-11-19T03:21:37;35.42;;;5.40;;
25449;SDS011;13371;52.080;5.624;2023-11-19T03:24:02;31.17;;;5.30;;
25449;SDS011;13371;52.080;5.624;2023-11-19T03:26:28;28.92;;;4.80;;
25449;SDS011;13371;52.080;5.624;2023-11-19T03:28:54;31.92;;;5.10;;
25449;SDS011;13371;52.080;5.624;2023-11-19T03:31:21;46.30;;;5.90;;
25449;SDS011;13371;52.080;5.624;2023-11-19T03:33:47;36.25;;;6.45;;
25449;SDS011;13371;52.080;5.624;2023-11-19T03:36:13;39.78;;;5.40;;
25449;SDS011;13371;52.080;5.624;2023-11-19T03:38:39;41.78;;;6.60;;
25449;SDS011;13371;52.080;5.624;2023-11-19T03:41:13;36.92;;;5.70;;
25449;SDS011;13371;52.080;5.624;2023-11-19T03:43:40;32.78;;;5.30;;
25449;SDS011;13371;52.080;5.624;2023-11-19T03:46:19;36.22;;;6.93;;
25449;SDS011;13371;52.080;5.624;2023-11-19T03:48:49;35.55;;;5.53;;
25449;SDS011;13371;52.080;5.624;2023-11-19T03:51:15;39.47;;;6.13;;
25449;SDS011;13371;52.080;5.624;2023-11-19T03:53:44;38.67;;;5.03;;
25449;SDS011;13371;52.080;5.624;2023-11-19T03:56:11;37.08;;;5.45;;
25449;SDS011;13371;52.080;5.624;2023-11-19T03:58:37;35.47;;;6.28;;
25449;SDS011;13371;52.080;5.624;2023-11-19T04:01:03;36.75;;;5.32;;
25449;SDS011;13371;52.080;5.624;2023-11-19T04:03:29;40.58;;;5.57;;
25449;SDS011;13371;52.080;5.624;2023-11-19T04:05:55;41.10;;;6.15;;
25449;SDS011;13371;52.080;5.624;2023-11-19T04:08:21;35.85;;;5.32;;
25449;SDS011;13371;52.080;5.624;2023-11-19T04:10:47;50.10;;;7.00;;
25449;SDS011;13371;52.080;5.624;2023-11-19T04:13:13;42.65;;;6.07;;
25449;SDS011;13371;52.080;5.624;2023-11-19T04:15:38;35.83;;;4.97;;
25449;SDS011;13371;52.080;5.624;2023-11-19T04:18:04;41.22;;;5.68;;
25449;SDS011;13371;52.080;5.624;2023-11-19T04:20:30;39.75;;;5.85;;
25449;SDS011;13371;52.080;5.624;2023-11-19T04:22:56;40.53;;;6.47;;
25449;SDS011;13371;52.080;5.624;2023-11-19T04:25:22;39.85;;;5.43;;
25449;SDS011;13371;52.080;5.624;2023-11-19T04:27:51;36.38;;;5.50;;
25449;SDS011;13371;52.080;5.624;2023-11-19T04:30:16;42.67;;;5.88;;
25449;SDS011;13371;52.080;5.624;2023-11-19T04:32:43;35.90;;;6.22;;
25449;SDS011;13371;52.080;5.624;2023-11-19T04:35:09;36.97;;;5.90;;
25449;SDS011;13371;52.080;5.624;2023-11-19T04:37:34;39.65;;;5.40;;
25449;SDS011;13371;52.080;5.624;2023-11-19T04:40:00;35.05;;;5.82;;
25449;SDS011;13371;52.080;5.624;2023-11-19T04:42:26;30.48;;;5.28;;
25449;SDS011;13371;52.080;5.624;2023-11-19T04:44:52;40.90;;;6.35;;
25449;SDS011;13371;52.080;5.624;2023-11-19T04:47:17;36.88;;;5.72;;
25449;SDS011;13371;52.080;5.624;2023-11-19T04:49:43;48.65;;;5.63;;
25449;SDS011;13371;52.080;5.624;2023-11-19T04:52:09;31.92;;;5.70;;
25449;SDS011;13371;52.080;5.624;2023-11-19T04:54:34;37.35;;;5.10;;
25449;SDS011;13371;52.080;5.624;2023-11-19T04:57:00;36.10;;;4.50;;
25449;SDS011;13371;52.080;5.624;2023-11-19T04:59:25;39.13;;;6.55;;
25449;SDS011;13371;52.080;5.624;2023-11-19T05:01:52;45.05;;;6.28;;
25449;SDS011;13371;52.080;5.624;2023-11-19T05:04:18;39.55;;;5.47;;
25449;SDS011;13371;52.080;5.624;2023-11-19T05:06:43;23.63;;;4.68;;
25449;SDS011;13371;52.080;5.624;2023-11-19T05:09:09;42.33;;;5.65;;
25449;SDS011;13371;52.080;5.624;2023-11-19T05:11:37;36.90;;;4.70;;
25449;SDS011;13371;52.080;5.624;2023-11-19T05:14:04;34.80;;;4.82;;
25449;SDS011;13371;52.080;5.624;2023-11-19T05:16:30;34.55;;;5.22;;
25449;SDS011;13371;52.080;5.624;2023-11-19T05:18:56;26.77;;;4.63;;
25449;SDS011;13371;52.080;5.624;2023-11-19T05:21:21;41.47;;;5.63;;
25449;SDS011;13371;52.080;5.624;2023-11-19T05:23:47;39.15;;;5.30;;
25449;SDS011;13371;52.080;5.624;2023-11-19T05:26:20;31.50;;;5.18;;
25449;SDS011;13371;52.080;5.624;2023-11-19T05:28:47;41.63;;;6.03;;
25449;SDS011;13371;52.080;5.624;2023-11-19T05:31:13;34.53;;;6.00;;
25449;SDS011;13371;52.080;5.624;2023-11-19T05:33:38;46.03;;;6.25;;
25449;SDS011;13371;52.080;5.624;2023-11-19T05:36:04;36.72;;;5.00;;
25449;SDS011;13371;52.080;5.624;2023-11-19T05:38:30;39.88;;;6.68;;
25449;SDS011;13371;52.080;5.624;2023-11-19T05:40:56;39.08;;;5.43;;
25449;SDS011;13371;52.080;5.624;2023-11-19T05:43:22;38.75;;;6.90;;
25449;SDS011;13371;52.080;5.624;2023-11-19T05:45:47;35.33;;;5.22;;
25449;SDS011;13371;52.080;5.624;2023-11-19T05:48:13;42.25;;;5.95;;
25449;SDS011;13371;52.080;5.624;2023-11-19T05:50:39;40.08;;;7.50;;
25449;SDS011;13371;52.080;5.624;2023-11-19T05:53:04;33.55;;;5.38;;
25449;SDS011;13371;52.080;5.624;2023-11-19T05:55:38;45.03;;;5.47;;
25449;SDS011;13371;52.080;5.624;2023-11-19T05:58:13;38.35;;;6.47;;
25449;SDS011;13371;52.080;5.624;2023-11-19T06:00:39;29.13;;;5.05;;
25449;SDS011;13371;52.080;5.624;2023-11-19T06:03:08;41.05;;;6.05;;
25449;SDS011;13371;52.080;5.624;2023-11-19T06:05:34;36.08;;;5.25;;
25449;SDS011;13371;52.080;5.624;2023-11-19T06:07:59;39.15;;;6.32;;
25449;SDS011;13371;52.080;5.624;2023-11-19T06:10:25;51.47;;;5.50;;
25449;SDS011;13371;52.080;5.624;2023-11-19T06:12:56;45.08;;;5.88;;
25449;SDS011;13371;52.080;5.624;2023-11-19T06:15:24;35.40;;;4.70;;
25449;SDS011;13371;52.080;5.624;2023-11-19T06:17:51;39.40;;;4.97;;
25449;SDS011;13371;52.080;5.624;2023-11-19T06:20:17;39.63;;;5.85;;
25449;SDS011;13371;52.080;5.624;2023-11-19T06:22:44;39.75;;;6.18;;
25449;SDS011;13371;52.080;5.624;2023-11-19T06:25:10;34.25;;;4.85;;
25449;SDS011;13371;52.080;5.624;2023-11-19T06:27:36;34.35;;;5.22;;
25449;SDS011;13371;52.080;5.624;2023-11-19T06:30:02;40.25;;;5.60;;
25449;SDS011;13371;52.080;5.624;2023-11-19T06:32:28;34.13;;;4.80;;
25449;SDS011;13371;52.080;5.624;2023-11-19T06:34:53;34.97;;;5.38;;
25449;SDS011;13371;52.080;5.624;2023-11-19T06:37:19;31.08;;;4.85;;
25449;SDS011;13371;52.080;5.624;2023-11-19T06:39:45;43.92;;;5.50;;
25449;SDS011;13371;52.080;5.624;2023-11-19T06:42:10;52.50;;;6.32;;
25449;SDS011;13371;52.080;5.624;2023-11-19T06:44:36;33.00;;;5.35;;
25449;SDS011;13371;52.080;5.624;2023-11-19T06:47:02;35.53;;;5.30;;
25449;SDS011;13371;52.080;5.624;2023-11-19T06:49:27;47.42;;;6.80;;
25449;SDS011;13371;52.080;5.624;2023-11-19T06:51:53;40.95;;;6.00;;
25449;SDS011;13371;52.080;5.624;2023-11-19T06:54:18;38.40;;;6.68;;
25449;SDS011;13371;52.080;5.624;2023-11-19T06:56:44;45.83;;;5.95;;
25449;SDS011;13371;52.080;5.624;2023-11-19T06:59:10;43.25;;;6.10;;
25449;SDS011;13371;52.080;5.624;2023-11-19T07:01:36;40.60;;;5.85;;
25449;SDS011;13371;52.080;5.624;2023-11-19T07:04:02;31.08;;;5.75;;
25449;SDS011;13371;52.080;5.624;2023-11-19T07:06:34;37.40;;;5.50;;
25449;SDS011;13371;52.080;5.624;2023-11-19T07:09:00;45.63;;;6.72;;
25449;SDS011;13371;52.080;5.624;2023-11-19T07:11:43;31.80;;;6.30;;
25449;SDS011;13371;52.080;5.624;2023-11-19T07:14:10;34.58;;;5.70;;
25449;SDS011;13371;52.080;5.624;2023-11-19T07:16:36;51.38;;;6.70;;
25449;SDS011;13371;52.080;5.624;2023-11-19T07:19:03;33.35;;;5.63;;
25449;SDS011;13371;52.080;5.624;2023-11-19T07:21:30;39.28;;;5.90;;
25449;SDS011;13371;52.080;5.624;2023-11-19T07:23:56;30.38;;;5.03;;
25449;SDS011;13371;52.080;5.624;2023-11-19T07:26:22;43.38;;;5.63;;
25449;SDS011;13371;52.080;5.624;2023-11-19T07:28:48;32.17;;;4.45;;
25449;SDS011;13371;52.080;5.624;2023-11-19T07:31:17;35.30;;;5.45;;
25449;SDS011;13371;52.080;5.624;2023-11-19T07:33:44;37.65;;;6.53;;
25449;SDS011;13371;52.080;5.624;2023-11-19T07:36:10;38.28;;;5.45;;
25449;SDS011;13371;52.080;5.624;2023-11-19T07:38:37;44.17;;;6.50;;
25449;SDS011;13371;52.080;5.624;2023-11-19T07:41:03;46.08;;;6.35;;
25449;SDS011;13371;52.080;5.624;2023-11-19T07:43:30;41.85;;;5.30;;
25449;SDS011;13371;52.080;5.624;2023-11-19T07:45:56;36.53;;;5.22;;
25449;SDS011;13371;52.080;5.624;2023-11-19T07:48:24;44.88;;;6.10;;
25449;SDS011;13371;52.080;5.624;2023-11-19T07:50:49;44.08;;;5.28;;
25449;SDS011;13371;52.080;5.624;2023-11-19T07:53:16;39.70;;;5.88;;
25449;SDS011;13371;52.080;5.624;2023-11-19T07:55:41;48.00;;;7.32;;
25449;SDS011;13371;52.080;5.624;2023-11-19T07:58:07;43.60;;;6.70;;
25449;SDS011;13371;52.080;5.624;2023-11-19T08:00:32;30.00;;;4.93;;
25449;SDS011;13371;52.080;5.624;2023-11-19T08:02:58;27.50;;;5.40;;
25449;SDS011;13371;52.080;5.624;2023-11-19T08:05:24;41.97;;;5.78;;
25449;SDS011;13371;52.080;5.624;2023-11-19T08:07:50;39.63;;;5.30;;
25449;SDS011;13371;52.080;5.624;2023-11-19T08:10:18;31.98;;;5.07;;
25449;SDS011;13371;52.080;5.624;2023-11-19T08:12:44;33.78;;;5.80;;
25449;SDS011;13371;52.080;5.624;2023-11-19T08:15:09;40.70;;;5.45;;
25449;SDS011;13371;52.080;5.624;2023-11-19T08:17:35;28.60;;;4.43;;
25449;SDS011;13371;52.080;5.624;2023-11-19T08:20:01;28.58;;;4.35;;
25449;SDS011;13371;52.080;5.624;2023-11-19T08:22:28;47.88;;;6.28;;
25449;SDS011;13371;52.080;5.624;2023-11-19T08:24:53;38.90;;;5.88;;
25449;SDS011;13371;52.080;5.624;2023-11-19T08:27:19;31.73;;;5.75;;
25449;SDS011;13371;52.080;5.624;2023-11-19T08:29:51;31.63;;;4.25;;
25449;SDS011;13371;52.080;5.624;2023-11-19T08:32:26;37.58;;;5.88;;
25449;SDS011;13371;52.080;5.624;2023-11-19T08:34:52;45.60;;;5.88;;
25449;SDS011;13371;52.080;5.624;2023-11-19T08:37:18;37.92;;;5.50;;
25449;SDS011;13371;52.080;5.624;2023-11-19T08:39:46;32.60;;;6.07;;
25449;SDS011;13371;52.080;5.624;2023-11-19T08:42:12;37.03;;;5.47;;
25449;SDS011;13371;52.080;5.624;2023-11-19T08:44:38;39.70;;;6.65;;
25449;SDS011;13371;52.080;5.624;2023-11-19T08:47:04;46.20;;;6.50;;
25449;SDS011;13371;52.080;5.624;2023-11-19T08:49:29;32.10;;;4.85;;
25449;SDS011;13371;52.080;5.624;2023-11-19T08:51:55;32.88;;;4.57;;
25449;SDS011;13371;52.080;5.624;2023-11-19T08:54:20;39.63;;;4.47;;
25449;SDS011;13371;52.080;5.624;2023-11-19T08:56:47;42.03;;;6.45;;
25449;SDS011;13371;52.080;5.624;2023-11-19T08:59:13;34.50;;;5.50;;
25449;SDS011;13371;52.080;5.624;2023-11-19T09:01:40;36.10;;;6.00;;
25449;SDS011;13371;52.080;5.624;2023-11-19T09:04:06;42.03;;;5.97;;
25449;SDS011;13371;52.080;5.624;2023-11-19T09:06:32;37.63;;;5.32;;
25449;SDS011;13371;52.080;5.624;2023-11-19T09:08:58;37.08;;;4.78;;
25449;SDS011;13371;52.080;5.624;2023-11-19T09:11:27;30.75;;;5.15;;
25449;SDS011;13371;52.080;5.624;2023-11-19T09:13:52;29.80;;;5.18;;
25449;SDS011;13371;52.080;5.624;2023-11-19T09:16:18;38.45;;;5.50;;
25449;SDS011;13371;52.080;5.624;2023-11-19T09:18:44;29.98;;;4.72;;
25449;SDS011;13371;52.080;5.624;2023-11-19T09:21:13;33.22;;;5.22;;
25449;SDS011;13371;52.080;5.624;2023-11-19T09:23:38;42.10;;;5.40;;
25449;SDS011;13371;52.080;5.624;2023-11-19T09:26:05;31.95;;;4.57;;
25449;SDS011;13371;52.080;5.624;2023-11-19T09:28:31;29.67;;;4.70;;
25449;SDS011;13371;52.080;5.624;2023-11-19T09:30:57;36.85;;;5.53;;
25449;SDS011;13371;52.080;5.624;2023-11-19T09:33:24;25.92;;;5.05;;
25449;SDS011;13371;52.080;5.624;2023-11-19T09:35:49;29.55;;;5.28;;
25449;SDS011;13371;52.080;5.624;2023-11-19T09:38:15;27.83;;;4.60;;
25449;SDS011;13371;52.080;5.624;2023-11-19T09:40:41;24.20;;;3.15;;
25449;SDS011;13371;52.080;5.624;2023-11-19T09:43:07;29.83;;;4.90;;
25449;SDS011;13371;52.080;5.624;2023-11-19T09:45:39;30.00;;;4.80;;
25449;SDS011;13371;52.080;5.624;2023-11-19T09:48:18;31.27;;;4.43;;
25449;SDS011;13371;52.080;5.624;2023-11-19T09:50:45;36.80;;;6.00;;
25449;SDS011;13371;52.080;5.624;2023-11-19T09:53:12;31.20;;;4.95;;
25449;SDS011;13371;52.080;5.624;2023-11-19T09:55:38;44.28;;;6.00;;
25449;SDS011;13371;52.080;5.624;2023-11-19T09:58:04;32.15;;;4.90;;
25449;SDS011;13371;52.080;5.624;2023-11-19T10:00:31;34.35;;;5.22;;
25449;SDS011;13371;52.080;5.624;2023-11-19T10:02:57;32.25;;;4.70;;
25449;SDS011;13371;52.080;5.624;2023-11-19T10:05:24;36.35;;;5.47;;
25449;SDS011;13371;52.080;5.624;2023-11-19T10:07:51;31.30;;;4.90;;
25449;SDS011;13371;52.080;5.624;2023-11-19T10:10:17;35.75;;;5.85;;
25449;SDS011;13371;52.080;5.624;2023-11-19T10:12:47;34.15;;;5.20;;
25449;SDS011;13371;52.080;5.624;2023-11-19T10:15:22;45.03;;;7.75;;
25449;SDS011;13371;52.080;5.624;2023-11-19T10:17:58;33.40;;;4.93;;
25449;SDS011;13371;52.080;5.624;2023-11-19T10:20:24;31.75;;;4.70;;
25449;SDS011;13371;52.080;5.624;2023-11-19T10:22:54;38.53;;;6.05;;
25449;SDS011;13371;52.080;5.624;2023-11-19T10:25:27;28.83;;;4.28;;
25449;SDS011;13371;52.080;5.624;2023-11-19T10:27:54;37.33;;;5.15;;
25449;SDS011;13371;52.080;5.624;2023-11-19T10:30:30;31.85;;;4.93;;
25449;SDS011;13371;52.080;5.624;2023-11-19T10:33:11;33.20;;;5.72;;
25449;SDS011;13371;52.080;5.624;2023-11-19T10:35:55;36.55;;;5.20;;
25449;SDS011;13371;52.080;5.624;2023-11-19T10:38:25;33.55;;;5.35;;
25449;SDS011;13371;52.080;5.624;2023-11-19T10:40:51;36.78;;;5.22;;
25449;SDS011;13371;52.080;5.624;2023-11-19T10:43:18;34.40;;;5.40;;
25449;SDS011;13371;52.080;5.624;2023-11-19T10:45:44;40.85;;;4.97;;
25449;SDS011;13371;52.080;5.624;2023-11-19T10:48:10;34.30;;;5.53;;
25449;SDS011;13371;52.080;5.624;2023-11-19T10:50:38;35.83;;;5.10;;
25449;SDS011;13371;52.080;5.624;2023-11-19T10:53:05;30.00;;;4.85;;
25449;SDS011;13371;52.080;5.624;2023-11-19T10:55:33;27.58;;;4.63;;
25449;SDS011;13371;52.080;5.624;2023-11-19T10:58:01;25.25;;;4.20;;
25449;SDS011;13371;52.080;5.624;2023-11-19T11:00:29;32.33;;;4.55;;
25449;SDS011;13371;52.080;5.624;2023-11-19T11:03:01;26.73;;;4.47;;
25449;SDS011;13371;52.080;5.624;2023-11-19T11:05:33;28.27;;;4.95;;
25449;SDS011;13371;52.080;5.624;2023-11-19T11:08:00;30.33;;;4.32;;
25449;SDS011;13371;52.080;5.624;2023-11-19T11:10:26;20.95;;;3.35;;
25449;SDS011;13371;52.080;5.624;2023-11-19T11:12:53;37.55;;;4.78;;
25449;SDS011;13371;52.080;5.624;2023-11-19T11:15:25;30.77;;;4.18;;
25449;SDS011;13371;52.080;5.624;2023-11-19T11:17:57;23.88;;;4.80;;
25449;SDS011;13371;52.080;5.624;2023-11-19T11:20:30;25.90;;;4.50;;
25449;SDS011;13371;52.080;5.624;2023-11-19T11:26:00;31.67;;;5.93;;
25449;SDS011;13371;52.080;5.624;2023-11-19T11:28:59;32.10;;;4.85;;
25449;SDS011;13371;52.080;5.624;2023-11-19T11:31:31;28.55;;;4.10;;
25449;SDS011;13371;52.080;5.624;2023-11-19T11:39:40;33.20;;;5.03;;
25449;SDS011;13371;52.080;5.624;2023-11-19T11:45:06;28.27;;;4.60;;
25449;SDS011;13371;52.080;5.624;2023-11-19T11:50:13;31.90;;;4.97;;
25449;SDS011;13371;52.080;5.624;2023-11-19T11:57:49;33.05;;;4.85;;
25449;SDS011;13371;52.080;5.624;2023-11-19T12:00:21;26.90;;;4.70;;
25449;SDS011;13371;52.080;5.624;2023-11-19T12:02:48;18.85;;;3.78;;
25449;SDS011;13371;52.080;5.624;2023-11-19T12:05:14;30.25;;;5.78;;
25449;SDS011;13371;52.080;5.624;2023-11-19T12:07:40;24.40;;;3.90;;
25449;SDS011;13371;52.080;5.624;2023-11-19T12:10:06;30.60;;;4.07;;
25449;SDS011;13371;52.080;5.624;2023-11-19T12:12:33;28.48;;;4.28;;
25449;SDS011;13371;52.080;5.624;2023-11-19T12:15:01;25.80;;;3.78;;
25449;SDS011;13371;52.080;5.624;2023-11-19T12:19:59;23.02;;;4.68;;
25449;SDS011;13371;52.080;5.624;2023-11-19T12:22:25;20.88;;;3.83;;
25449;SDS011;13371;52.080;5.624;2023-11-19T12:24:51;26.02;;;3.67;;
25449;SDS011;13371;52.080;5.624;2023-11-19T12:27:21;23.55;;;3.55;;
25449;SDS011;13371;52.080;5.624;2023-11-19T12:29:47;26.23;;;4.47;;
25449;SDS011;13371;52.080;5.624;2023-11-19T12:32:13;25.08;;;3.70;;
25449;SDS011;13371;52.080;5.624;2023-11-19T12:34:39;26.95;;;4.57;;
25449;SDS011;13371;52.080;5.624;2023-11-19T12:37:05;25.77;;;3.75;;
25449;SDS011;13371;52.080;5.624;2023-11-19T12:39:31;23.33;;;3.40;;
25449;SDS011;13371;52.080;5.624;2023-11-19T12:41:57;21.02;;;4.10;;
25449;SDS011;13371;52.080;5.624;2023-11-19T12:44:26;21.35;;;3.20;;
25449;SDS011;13371;52.080;5.624;2023-11-19T12:47:02;25.85;;;4.35;;
25449;SDS011;13371;52.080;5.624;2023-11-19T12:49:29;18.80;;;3.35;;
25449;SDS011;13371;52.080;5.624;2023-11-19T12:51:54;31.25;;;4.85;;
25449;SDS011;13371;52.080;5.624;2023-11-19T12:54:31;25.88;;;4.47;;
25449;SDS011;13371;52.080;5.624;2023-11-19T12:56:57;24.23;;;3.90;;
25449;SDS011;13371;52.080;5.624;2023-11-19T12:59:23;23.38;;;4.57;;
25449;SDS011;13371;52.080;5.624;2023-11-19T13:01:56;21.15;;;4.15;;
25449;SDS011;13371;52.080;5.624;2023-11-19T13:04:23;26.65;;;4.15;;
25449;SDS011;13371;52.080;5.624;2023-11-19T13:06:53;21.15;;;3.90;;
25449;SDS011;13371;52.080;5.624;2023-11-19T13:11:49;33.05;;;4.57;;
25449;SDS011;13371;52.080;5.624;2023-11-19T13:14:15;22.80;;;3.55;;
25449;SDS011;13371;52.080;5.624;2023-11-19T13:16:41;28.05;;;4.05;;
25449;SDS011;13371;52.080;5.624;2023-11-19T13:19:07;17.17;;;3.50;;
25449;SDS011;13371;52.080;5.624;2023-11-19T13:21:36;21.13;;;4.32;;
25449;SDS011;13371;52.080;5.624;2023-11-19T13:24:02;20.65;;;3.63;;
25449;SDS011;13371;52.080;5.624;2023-11-19T13:26:28;28.85;;;5.07;;
25449;SDS011;13371;52.080;5.624;2023-11-19T13:28:54;26.73;;;4.00;;
25449;SDS011;13371;52.080;5.624;2023-11-19T13:31:19;25.73;;;4.20;;
25449;SDS011;13371;52.080;5.624;2023-11-19T13:33:45;26.45;;;4.03;;
25449;SDS011;13371;52.080;5.624;2023-11-19T13:36:11;20.52;;;3.20;;
25449;SDS011;13371;52.080;5.624;2023-11-19T13:38:37;19.58;;;4.57;;
25449;SDS011;13371;52.080;5.624;2023-11-19T13:41:02;29.30;;;4.38;;
25449;SDS011;13371;52.080;5.624;2023-11-19T13:43:29;26.98;;;3.45;;
25449;SDS011;13371;52.080;5.624;2023-11-19T13:45:55;29.10;;;3.97;;
25449;SDS011;13371;52.080;5.624;2023-11-19T13:48:23;30.23;;;4.38;;
25449;SDS011;13371;52.080;5.624;2023-11-19T13:50:49;33.15;;;4.18;;
25449;SDS011;13371;52.080;5.624;2023-11-19T13:53:14;25.20;;;4.45;;
25449;SDS011;13371;52.080;5.624;2023-11-19T13:55:41;30.23;;;4.75;;
25449;SDS011;13371;52.080;5.624;2023-11-19T13:58:07;23.92;;;3.00;;
25449;SDS011;13371;52.080;5.624;2023-11-19T14:00:33;20.77;;;3.33;;
25449;SDS011;13371;52.080;5.624;2023-11-19T14:02:58;18.20;;;3.10;;
25449;SDS011;13371;52.080;5.624;2023-11-19T14:05:24;19.27;;;4.88;;
25449;SDS011;13371;52.080;5.624;2023-11-19T14:07:50;22.02;;;2.85;;
25449;SDS011;13371;52.080;5.624;2023-11-19T14:10:16;20.77;;;4.50;;
25449;SDS011;13371;52.080;5.624;2023-11-19T14:12:42;21.60;;;4.30;;
25449;SDS011;13371;52.080;5.624;2023-11-19T14:15:08;25.45;;;4.82;;
25449;SDS011;13371;52.080;5.624;2023-11-19T14:17:35;19.65;;;3.65;;
25449;SDS011;13371;52.080;5.624;2023-11-19T14:20:04;25.27;;;3.72;;
25449;SDS011;13371;52.080;5.624;2023-11-19T14:22:46;21.98;;;4.40;;
25449;SDS011;13371;52.080;5.624;2023-11-19T14:25:14;23.05;;;4.35;;
25449;SDS011;13371;52.080;5.624;2023-11-19T14:27:40;20.00;;;3.08;;
25449;SDS011;13371;52.080;5.624;2023-11-19T14:30:11;30.80;;;4.78;;
25449;SDS011;13371;52.080;5.624;2023-11-19T14:32:38;20.45;;;4.07;;
25449;SDS011;13371;52.080;5.624;2023-11-19T14:35:05;24.98;;;4.10;;
25449;SDS011;13371;52.080;5.624;2023-11-19T14:37:31;15.65;;;3.22;;
25449;SDS011;13371;52.080;5.624;2023-11-19T14:39:57;31.50;;;3.75;;
25449;SDS011;13371;52.080;5.624;2023-11-19T14:42:23;28.13;;;3.97;;
25449;SDS011;13371;52.080;5.624;2023-11-19T14:44:50;18.08;;;3.60;;
25449;SDS011;13371;52.080;5.624;2023-11-19T14:47:17;27.80;;;3.75;;
25449;SDS011;13371;52.080;5.624;2023-11-19T14:49:43;21.77;;;3.78;;
25449;SDS011;13371;52.080;5.624;2023-11-19T14:52:09;27.65;;;4.50;;
25449;SDS011;13371;52.080;5.624;2023-11-19T14:54:35;29.25;;;4.28;;
25449;SDS011;13371;52.080;5.624;2023-11-19T14:57:01;28.75;;;5.78;;
25449;SDS011;13371;52.080;5.624;2023-11-19T14:59:28;26.65;;;3.85;;